Time;durP1;ratioP1;P1;durP2;ratioP2;P2;SDS_P1;SDS_P2;PMS_P1;PMS_P2;Temp;Humidity;BMP_temperature;BMP_pressure;BME280_temperature;BME280_humidity;BME280_pressure;Samples;Min_cycle;Max_cycle;Signal;HPM_P1;HPM_P2
2021/09/20 00:01:07;;;;;;;;;2.67;2.67;;;;;;;;5033008;28;50940;-53
2021/09/20 00:03:32;;;;;;;;;1.00;1.00;;;;;;;;5031182;28;51018;-53
2021/09/20 00:05:58;;;;;;;;;2.33;2.33;;;;;;;;5033928;28;50912;-54
2021/09/20 00:08:23;;;;;;;;;1.33;1.33;;;;;;;;5032622;28;51143;-54
2021/09/20 00:10:50;;;;;;;;;2.00;1.00;;;;;;;;5033935;28;50872;-53
2021/09/20 00:13:16;;;;;;;;;1.00;1.00;;;;;;;;5032285;28;51137;-53
2021/09/20 00:15:41;;;;;;;;;1.00;1.00;;;;;;;;5034002;28;50929;-53
2021/09/20 00:18:06;;;;;;;;;1.00;1.00;;;;;;;;5032394;28;52949;-54
2021/09/20 00:20:31;;;;;;;;;1.00;1.00;;;;;;;;5033820;28;50922;-53
2021/09/20 00:22:56;;;;;;;;;2.00;1.00;;;;;;;;5032682;28;51030;-56
2021/09/20 00:25:22;;;;;;;;;1.00;1.00;;;;;;;;5031753;28;51409;-52
2021/09/20 00:27:47;;;;;;;;;1.00;1.00;;;;;;;;5033043;28;51911;-52
2021/09/20 00:30:13;;;;;;;;;0.00;0.00;;;;;;;;5028893;28;51258;-54
2021/09/20 00:32:38;;;;;;;;;1.00;0.00;;;;;;;;5031967;28;51067;-51
2021/09/20 00:35:05;;;;;;;;;1.00;1.00;;;;;;;;5032613;28;50865;-53
2021/09/20 00:37:30;;;;;;;;;1.00;1.00;;;;;;;;5033149;28;51901;-52
2021/09/20 00:39:55;;;;;;;;;2.00;1.00;;;;;;;;5032115;28;51097;-53
2021/09/20 00:42:21;;;;;;;;;1.00;1.00;;;;;;;;5032747;28;51035;-52
2021/09/20 00:44:46;;;;;;;;;0.00;0.00;;;;;;;;5033145;28;51020;-53
2021/09/20 00:47:11;;;;;;;;;0.33;0.33;;;;;;;;5032292;28;51057;-52
2021/09/20 00:49:36;;;;;;;;;1.00;1.00;;;;;;;;5030906;28;51198;-53
2021/09/20 00:52:02;;;;;;;;;1.00;1.00;;;;;;;;5033399;28;50987;-52
2021/09/20 00:54:27;;;;;;;;;0.00;0.00;;;;;;;;5023225;28;51248;-53
2021/09/20 00:56:52;;;;;;;;;0.00;0.00;;;;;;;;5031455;28;52104;-52
2021/09/20 00:59:18;;;;;;;;;1.00;1.00;;;;;;;;5031360;28;50932;-55
2021/09/20 01:01:43;;;;;;;;;1.00;1.00;;;;;;;;5031063;28;51059;-53
2021/09/20 01:04:09;;;;;;;;;1.00;1.00;;;;;;;;5032229;28;50980;-53
2021/09/20 01:06:34;;;;;;;;;1.00;1.00;;;;;;;;5031667;28;51011;-54
2021/09/20 01:08:59;;;;;;;;;1.00;1.00;;;;;;;;5033063;28;50880;-53
2021/09/20 01:11:25;;;;;;;;;3.00;1.00;;;;;;;;5032297;28;51005;-54
2021/09/20 01:13:50;;;;;;;;;0.33;0.33;;;;;;;;5033011;28;50861;-51
2021/09/20 01:16:15;;;;;;;;;4.00;3.00;;;;;;;;5030160;28;51132;-52
2021/09/20 01:18:40;;;;;;;;;2.00;1.00;;;;;;;;5032810;28;51170;-53
2021/09/20 01:21:06;;;;;;;;;1.00;0.00;;;;;;;;5032260;28;51236;-53
2021/09/20 01:23:31;;;;;;;;;1.00;1.00;;;;;;;;5032859;28;51220;-54
2021/09/20 01:25:56;;;;;;;;;1.50;1.50;;;;;;;;5030393;28;50891;-53
2021/09/20 01:28:21;;;;;;;;;2.67;2.00;;;;;;;;5032803;28;51876;-53
2021/09/20 01:30:47;;;;;;;;;3.00;2.00;;;;;;;;5032232;28;51319;-53
2021/09/20 01:33:12;;;;;;;;;1.67;1.67;;;;;;;;5030950;28;51388;-53
2021/09/20 01:35:37;;;;;;;;;2.00;2.00;;;;;;;;5030759;28;52099;-53
2021/09/20 01:38:03;;;;;;;;;3.00;2.67;;;;;;;;5032555;28;51040;-54
2021/09/20 01:40:28;;;;;;;;;1.00;1.00;;;;;;;;5032267;28;51241;-54
2021/09/20 01:42:54;;;;;;;;;1.00;1.00;;;;;;;;5031331;28;51149;-53
2021/09/20 01:45:19;;;;;;;;;3.33;2.00;;;;;;;;5030478;28;51839;-53
2021/09/20 01:47:44;;;;;;;;;1.67;1.67;;;;;;;;5031457;28;51054;-54
2021/09/20 01:50:11;;;;;;;;;1.00;1.00;;;;;;;;5031758;28;51113;-53
2021/09/20 01:52:36;;;;;;;;;3.00;2.00;;;;;;;;5031642;28;51406;-53
2021/09/20 01:55:01;;;;;;;;;1.00;1.00;;;;;;;;5030801;28;51451;-54
2021/09/20 01:57:27;;;;;;;;;3.00;2.00;;;;;;;;5030821;28;51154;-51
2021/09/20 01:59:52;;;;;;;;;3.00;2.67;;;;;;;;5031112;28;51237;-54
2021/09/20 02:02:17;;;;;;;;;1.33;1.33;;;;;;;;5034098;28;51325;-54
2021/09/20 02:04:43;;;;;;;;;2.00;2.00;;;;;;;;5034467;28;52764;-53
2021/09/20 02:07:08;;;;;;;;;1.00;1.00;;;;;;;;5016803;28;51161;-52
2021/09/20 02:09:34;;;;;;;;;2.33;1.33;;;;;;;;5035499;28;50845;-53
2021/09/20 02:11:59;;;;;;;;;2.00;1.00;;;;;;;;5035549;28;51324;-54
2021/09/20 02:14:24;;;;;;;;;1.33;1.33;;;;;;;;5034347;28;51920;-54
2021/09/20 02:16:50;;;;;;;;;2.00;2.00;;;;;;;;5016428;28;51108;-53
2021/09/20 02:19:15;;;;;;;;;3.00;2.00;;;;;;;;5035581;28;51287;-53
2021/09/20 02:21:40;;;;;;;;;2.00;1.67;;;;;;;;5033699;28;51058;-51
2021/09/20 02:24:05;;;;;;;;;3.00;3.00;;;;;;;;5035092;28;52457;-53
2021/09/20 02:26:31;;;;;;;;;2.00;2.00;;;;;;;;5033889;28;51025;-50
2021/09/20 02:28:56;;;;;;;;;3.00;2.00;;;;;;;;5034674;28;51230;-52
2021/09/20 02:31:21;;;;;;;;;2.00;2.00;;;;;;;;5033156;28;51118;-53
2021/09/20 02:33:47;;;;;;;;;2.00;2.00;;;;;;;;5035066;28;51822;-52
2021/09/20 02:36:12;;;;;;;;;3.00;2.33;;;;;;;;5034279;28;51030;-53
2021/09/20 02:38:37;;;;;;;;;2.00;2.00;;;;;;;;5035261;28;50992;-53
2021/09/20 02:41:04;;;;;;;;;2.00;2.00;;;;;;;;5016010;28;51061;-53
2021/09/20 02:43:29;;;;;;;;;2.33;2.00;;;;;;;;5034609;28;52867;-52
2021/09/20 02:45:54;;;;;;;;;2.33;2.33;;;;;;;;5033253;28;50865;-52
2021/09/20 02:48:19;;;;;;;;;3.00;2.00;;;;;;;;5034961;28;50911;-53
2021/09/20 02:50:45;;;;;;;;;3.00;3.00;;;;;;;;5033489;28;51039;-53
2021/09/20 02:53:10;;;;;;;;;2.00;2.00;;;;;;;;5034874;28;50988;-52
2021/09/20 02:55:35;;;;;;;;;2.00;1.00;;;;;;;;5033159;28;51251;-52
2021/09/20 02:58:01;;;;;;;;;2.00;1.33;;;;;;;;5034666;28;51152;-56
2021/09/20 03:00:26;;;;;;;;;2.00;2.00;;;;;;;;5033229;28;51221;-53
2021/09/20 03:02:51;;;;;;;;;1.00;1.00;;;;;;;;5034563;28;51668;-53
2021/09/20 03:05:17;;;;;;;;;3.00;2.00;;;;;;;;5033890;28;51137;-53
2021/09/20 03:07:42;;;;;;;;;2.00;1.00;;;;;;;;5034916;28;50926;-54
2021/09/20 03:10:08;;;;;;;;;2.00;2.00;;;;;;;;5032313;28;51038;-52
2021/09/20 03:12:33;;;;;;;;;2.00;2.00;;;;;;;;5033701;28;50899;-53
2021/09/20 03:14:58;;;;;;;;;2.33;2.33;;;;;;;;5033400;28;50852;-52
2021/09/20 03:17:24;;;;;;;;;2.00;2.00;;;;;;;;5034698;28;50899;-53
2021/09/20 03:19:49;;;;;;;;;2.00;2.00;;;;;;;;5033768;28;50991;-53
2021/09/20 03:22:14;;;;;;;;;1.00;1.00;;;;;;;;5032946;28;52679;-52
2021/09/20 03:24:40;;;;;;;;;3.33;3.00;;;;;;;;5034418;28;50797;-54
2021/09/20 03:27:05;;;;;;;;;3.00;3.00;;;;;;;;5033037;28;50817;-53
2021/09/20 03:29:31;;;;;;;;;3.33;3.33;;;;;;;;5034467;28;50809;-54
2021/09/20 03:31:56;;;;;;;;;1.33;1.00;;;;;;;;5032548;28;51662;-53
2021/09/20 03:34:21;;;;;;;;;3.67;3.67;;;;;;;;5033634;28;50932;-52
2021/09/20 03:36:47;;;;;;;;;4.00;2.00;;;;;;;;5033281;28;51152;-53
2021/09/20 03:39:12;;;;;;;;;2.33;2.33;;;;;;;;5034865;28;51304;-53
2021/09/20 03:41:37;;;;;;;;;2.67;2.00;;;;;;;;5032214;28;51164;-53
2021/09/20 03:44:03;;;;;;;;;3.67;3.00;;;;;;;;5033302;28;50991;-54
2021/09/20 03:46:28;;;;;;;;;3.00;2.67;;;;;;;;5013328;28;50980;-54
2021/09/20 03:48:53;;;;;;;;;2.00;2.00;;;;;;;;5034346;28;51140;-53
2021/09/20 03:51:19;;;;;;;;;4.00;4.00;;;;;;;;5032028;28;52015;-53
2021/09/20 03:53:44;;;;;;;;;3.00;3.00;;;;;;;;5033811;28;50947;-53
2021/09/20 03:56:09;;;;;;;;;2.33;2.00;;;;;;;;5032849;28;51197;-53
2021/09/20 03:58:35;;;;;;;;;3.00;3.00;;;;;;;;5033975;28;50919;-53
2021/09/20 04:01:00;;;;;;;;;4.67;4.67;;;;;;;;5031421;28;51879;-53
2021/09/20 04:03:25;;;;;;;;;3.00;3.00;;;;;;;;5033916;28;51170;-53
2021/09/20 04:05:51;;;;;;;;;2.33;2.33;;;;;;;;5032846;28;51325;-53
2021/09/20 04:08:16;;;;;;;;;4.33;4.00;;;;;;;;5034191;28;51114;-53
2021/09/20 04:10:44;;;;;;;;;3.67;3.00;;;;;;;;5030871;28;52744;-51
2021/09/20 04:13:10;;;;;;;;;4.33;4.00;;;;;;;;5033521;28;50983;-50
2021/09/20 04:15:37;;;;;;;;;4.00;3.67;;;;;;;;5032680;28;51070;-51
2021/09/20 04:18:02;;;;;;;;;3.00;2.67;;;;;;;;5018566;28;51173;-53
2021/09/20 04:20:27;;;;;;;;;3.00;2.67;;;;;;;;5032654;28;51100;-50
2021/09/20 04:22:52;;;;;;;;;4.00;3.00;;;;;;;;5032483;28;50938;-54
2021/09/20 04:25:18;;;;;;;;;3.33;3.00;;;;;;;;5032581;28;51079;-54
2021/09/20 04:27:43;;;;;;;;;3.00;3.00;;;;;;;;5033326;28;51019;-53
2021/09/20 04:30:09;;;;;;;;;3.00;3.00;;;;;;;;5033235;28;52036;-53
2021/09/20 04:32:34;;;;;;;;;3.00;3.00;;;;;;;;5032781;28;51018;-53
2021/09/20 04:34:59;;;;;;;;;3.00;3.00;;;;;;;;5031233;28;51085;-52
2021/09/20 04:37:25;;;;;;;;;3.00;3.00;;;;;;;;5032395;28;51004;-52
2021/09/20 04:39:50;;;;;;;;;2.00;1.67;;;;;;;;5032993;28;51729;-53
2021/09/20 04:42:15;;;;;;;;;3.00;2.67;;;;;;;;5014068;28;51229;-52
2021/09/20 04:44:41;;;;;;;;;3.00;3.00;;;;;;;;5032250;28;51168;-53
2021/09/20 04:47:06;;;;;;;;;4.00;4.00;;;;;;;;5033465;28;51083;-52
2021/09/20 04:49:31;;;;;;;;;2.00;2.00;;;;;;;;5033112;28;51578;-53
2021/09/20 04:51:57;;;;;;;;;2.33;2.33;;;;;;;;5032312;28;51121;-53
2021/09/20 04:54:22;;;;;;;;;3.00;2.33;;;;;;;;5033126;28;51428;-52
2021/09/20 04:56:47;;;;;;;;;3.00;3.00;;;;;;;;5031929;28;51202;-53
2021/09/20 04:59:12;;;;;;;;;2.67;2.67;;;;;;;;5032591;28;51026;-53
2021/09/20 05:01:38;;;;;;;;;3.33;3.00;;;;;;;;5028723;28;50960;-53
2021/09/20 05:04:03;;;;;;;;;3.00;2.00;;;;;;;;5032943;28;51158;-53
2021/09/20 05:06:28;;;;;;;;;4.00;3.00;;;;;;;;5013018;28;51157;-53
2021/09/20 05:08:53;;;;;;;;;3.33;3.00;;;;;;;;5014874;28;51655;-53
2021/09/20 05:11:18;;;;;;;;;2.00;2.00;;;;;;;;5029804;28;51125;-53
2021/09/20 05:13:44;;;;;;;;;2.00;2.00;;;;;;;;5031873;28;50881;-53
2021/09/20 05:16:09;;;;;;;;;3.67;3.67;;;;;;;;5031024;28;51308;-53
2021/09/20 05:18:34;;;;;;;;;2.67;2.67;;;;;;;;5032429;28;51754;-53
2021/09/20 05:20:59;;;;;;;;;3.00;3.00;;;;;;;;5019568;28;51132;-51
2021/09/20 05:23:25;;;;;;;;;4.00;4.00;;;;;;;;5031908;28;51021;-56
2021/09/20 05:25:50;;;;;;;;;2.00;2.00;;;;;;;;5031821;28;51241;-53
2021/09/20 05:28:15;;;;;;;;;3.00;3.00;;;;;;;;5032379;28;51786;-51
2021/09/20 05:30:40;;;;;;;;;2.67;2.67;;;;;;;;5031359;28;50884;-51
2021/09/20 05:33:06;;;;;;;;;3.00;3.00;;;;;;;;5031559;28;50788;-51
2021/09/20 05:35:31;;;;;;;;;3.33;3.00;;;;;;;;5035167;28;51163;-53
2021/09/20 05:37:56;;;;;;;;;3.67;3.00;;;;;;;;5035707;28;51045;-54
2021/09/20 05:40:23;;;;;;;;;3.00;3.00;;;;;;;;5035877;28;51039;-53
2021/09/20 05:42:48;;;;;;;;;4.33;4.33;;;;;;;;5034929;28;51125;-53
2021/09/20 05:45:13;;;;;;;;;5.67;5.00;;;;;;;;5035540;28;51256;-51
2021/09/20 05:47:39;;;;;;;;;6.67;6.67;;;;;;;;5035278;28;51710;-53
2021/09/20 05:50:05;;;;;;;;;7.00;5.67;;;;;;;;5035841;28;50912;-54
2021/09/20 05:52:30;;;;;;;;;6.00;6.00;;;;;;;;5034344;28;51098;-53
2021/09/20 05:54:56;;;;;;;;;5.00;5.00;;;;;;;;5035764;28;51162;-53
2021/09/20 05:57:21;;;;;;;;;6.67;6.00;;;;;;;;5034798;28;51020;-54
2021/09/20 05:59:46;;;;;;;;;9.33;8.33;;;;;;;;5035373;28;51069;-54
2021/09/20 06:02:12;;;;;;;;;9.67;8.00;;;;;;;;5034945;28;51006;-54
2021/09/20 06:04:37;;;;;;;;;14.33;13.00;;;;;;;;5034973;28;50897;-54
2021/09/20 06:07:02;;;;;;;;;8.67;8.00;;;;;;;;5035139;28;51967;-54
2021/09/20 06:09:27;;;;;;;;;6.33;5.33;;;;;;;;5035440;28;50923;-54
2021/09/20 06:11:53;;;;;;;;;9.33;9.33;;;;;;;;5016719;28;51170;-51
2021/09/20 06:14:18;;;;;;;;;12.00;11.00;;;;;;;;5030292;28;51197;-53
2021/09/20 06:16:43;;;;;;;;;9.67;9.67;;;;;;;;5034788;28;52713;-54
2021/09/20 06:19:09;;;;;;;;;9.33;9.00;;;;;;;;5035215;28;51161;-54
2021/09/20 06:21:34;;;;;;;;;10.67;9.33;;;;;;;;5034682;28;51342;-54
2021/09/20 06:23:59;;;;;;;;;13.33;12.33;;;;;;;;5035042;28;51192;-54
2021/09/20 06:26:25;;;;;;;;;10.67;10.00;;;;;;;;5033809;28;51690;-54
2021/09/20 06:28:50;;;;;;;;;14.33;11.67;;;;;;;;5032665;28;51011;-54
2021/09/20 06:31:15;;;;;;;;;14.33;14.33;;;;;;;;5033889;28;51090;-54
2021/09/20 06:33:40;;;;;;;;;12.67;10.67;;;;;;;;5008923;28;51172;-54
2021/09/20 06:36:06;;;;;;;;;14.33;13.67;;;;;;;;5022231;28;51566;-54
2021/09/20 06:38:31;;;;;;;;;11.33;10.33;;;;;;;;5024404;28;51000;-54
2021/09/20 06:40:56;;;;;;;;;16.00;13.00;;;;;;;;5026802;28;51050;-54
2021/09/20 06:43:22;;;;;;;;;15.00;14.00;;;;;;;;5030878;28;51409;-53
2021/09/20 06:45:50;;;;;;;;;9.33;9.33;;;;;;;;5028985;28;51788;-53
2021/09/20 06:48:15;;;;;;;;;17.75;16.50;;;;;;;;5029225;28;51188;-54
2021/09/20 06:50:49;;;;;;;;;12.00;12.00;;;;;;;;5031868;28;51082;-53
2021/09/20 06:53:14;;;;;;;;;15.00;14.00;;;;;;;;5010970;28;51386;-53
2021/09/20 06:55:40;;;;;;;;;14.67;14.67;;;;;;;;5020883;28;52090;-53
2021/09/20 06:58:05;;;;;;;;;15.67;14.67;;;;;;;;5029393;28;50976;-52
2021/09/20 07:00:31;;;;;;;;;14.33;12.67;;;;;;;;5030401;28;50944;-54
2021/09/20 07:02:56;;;;;;;;;14.67;14.33;;;;;;;;5029751;28;51101;-53
2021/09/20 07:05:22;;;;;;;;;14.67;13.67;;;;;;;;5025509;28;51800;-54
2021/09/20 07:07:47;;;;;;;;;14.00;14.00;;;;;;;;5020397;28;51434;-53
2021/09/20 07:10:14;;;;;;;;;17.33;15.00;;;;;;;;5022793;28;51117;-54
2021/09/20 07:12:41;;;;;;;;;15.33;15.00;;;;;;;;5030432;28;50867;-58
2021/09/20 07:15:06;;;;;;;;;16.67;16.33;;;;;;;;5027304;28;52027;-53
2021/09/20 07:17:32;;;;;;;;;16.00;15.67;;;;;;;;5032202;28;51101;-54
2021/09/20 07:19:57;;;;;;;;;18.25;17.00;;;;;;;;5029374;28;51197;-53
2021/09/20 07:22:22;;;;;;;;;16.67;16.00;;;;;;;;5029460;28;51141;-54
2021/09/20 07:24:48;;;;;;;;;16.67;16.33;;;;;;;;5028973;28;52900;-53
2021/09/20 07:27:13;;;;;;;;;15.50;15.50;;;;;;;;5033490;28;50974;-51
2021/09/20 07:29:38;;;;;;;;;19.00;17.00;;;;;;;;5032143;28;51325;-54
2021/09/20 07:32:03;;;;;;;;;23.00;20.50;;;;;;;;5033611;28;51297;-53
2021/09/20 07:34:29;;;;;;;;;16.75;16.75;;;;;;;;5030560;28;52282;-54
2021/09/20 07:36:54;;;;;;;;;18.75;17.50;;;;;;;;5025983;28;51333;-53
2021/09/20 07:39:19;;;;;;;;;16.75;15.50;;;;;;;;5026976;28;51160;-51
2021/09/20 07:41:45;;;;;;;;;17.50;16.75;;;;;;;;5027893;28;51152;-52
2021/09/20 07:44:10;;;;;;;;;16.50;15.75;;;;;;;;5033579;28;51470;-51
2021/09/20 07:46:37;;;;;;;;;17.00;14.00;;;;;;;;5031518;28;51050;-53
2021/09/20 07:49:02;;;;;;;;;16.50;16.25;;;;;;;;5031767;28;51095;-54
2021/09/20 07:51:27;;;;;;;;;12.33;11.33;;;;;;;;5029539;28;51175;-53
2021/09/20 07:53:52;;;;;;;;;18.00;15.00;;;;;;;;5029688;28;51992;-55
2021/09/20 07:56:18;;;;;;;;;18.25;16.75;;;;;;;;5012957;28;51094;-57
2021/09/20 07:58:43;;;;;;;;;18.50;16.25;;;;;;;;5030503;28;51173;-54
2021/09/20 08:01:08;;;;;;;;;16.67;15.67;;;;;;;;5027087;28;52475;-51
2021/09/20 08:03:33;;;;;;;;;16.50;16.00;;;;;;;;5028797;28;51161;-54
2021/09/20 08:05:59;;;;;;;;;16.00;15.00;;;;;;;;5033126;28;50917;-54
2021/09/20 08:08:24;;;;;;;;;15.00;13.67;;;;;;;;5028973;28;51232;-52
2021/09/20 08:10:50;;;;;;;;;13.00;13.00;;;;;;;;5029613;28;51389;-55
2021/09/20 08:13:15;;;;;;;;;13.00;12.00;;;;;;;;5029880;28;51654;-55
2021/09/20 08:15:42;;;;;;;;;11.33;10.33;;;;;;;;5032308;28;51342;-59
2021/09/20 08:18:07;;;;;;;;;11.00;10.67;;;;;;;;5031771;28;51163;-51
2021/09/20 08:20:33;;;;;;;;;12.67;11.33;;;;;;;;5029213;28;51162;-55
2021/09/20 08:22:59;;;;;;;;;13.67;13.67;;;;;;;;5028321;28;52769;-54
2021/09/20 08:25:24;;;;;;;;;16.67;14.00;;;;;;;;5030290;28;51113;-53
2021/09/20 08:27:50;;;;;;;;;12.00;10.00;;;;;;;;5030910;28;50943;-53
2021/09/20 08:30:16;;;;;;;;;12.67;12.33;;;;;;;;5029360;28;50977;-53
2021/09/20 08:32:42;;;;;;;;;12.00;11.00;;;;;;;;5014211;28;51086;-54
2021/09/20 08:35:08;;;;;;;;;15.00;13.00;;;;;;;;5028497;28;52004;-54
2021/09/20 08:37:33;;;;;;;;;14.00;14.00;;;;;;;;5028673;28;50969;-52
2021/09/20 08:39:58;;;;;;;;;14.00;13.67;;;;;;;;5030085;28;51238;-52
2021/09/20 08:42:24;;;;;;;;;12.00;11.00;;;;;;;;5026639;28;51082;-53
2021/09/20 08:44:49;;;;;;;;;14.33;12.67;;;;;;;;5029808;28;51293;-53
2021/09/20 08:47:16;;;;;;;;;15.33;14.67;;;;;;;;5031427;28;51119;-54
2021/09/20 08:49:41;;;;;;;;;13.00;12.33;;;;;;;;5028924;28;51119;-55
2021/09/20 08:52:07;;;;;;;;;13.00;12.00;;;;;;;;5031806;28;51031;-53
2021/09/20 08:54:32;;;;;;;;;16.67;16.00;;;;;;;;5029168;28;51159;-54
2021/09/20 08:56:58;;;;;;;;;11.00;11.00;;;;;;;;5030533;28;51153;-53
2021/09/20 08:59:23;;;;;;;;;13.00;13.00;;;;;;;;5029583;28;51237;-54
2021/09/20 09:01:50;;;;;;;;;29.00;28.00;;;;;;;;5029769;28;51942;-54
2021/09/20 09:04:28;;;;;;;;;14.00;13.67;;;;;;;;5010681;28;51341;-53
2021/09/20 09:07:04;;;;;;;;;13.00;12.00;;;;;;;;5029930;28;51119;-53
2021/09/20 09:09:34;;;;;;;;;11.67;11.67;;;;;;;;5031608;28;51305;-54
2021/09/20 09:12:07;;;;;;;;;16.00;15.00;;;;;;;;5036046;28;51925;-54
2021/09/20 09:14:37;;;;;;;;;16.33;15.00;;;;;;;;5037492;28;51088;-54
2021/09/20 09:17:02;;;;;;;;;17.00;16.67;;;;;;;;5035817;28;51135;-54
2021/09/20 09:19:27;;;;;;;;;19.75;19.75;;;;;;;;5033153;28;51153;-55
2021/09/20 09:21:53;;;;;;;;;14.67;14.33;;;;;;;;5036913;28;50986;-53
2021/09/20 09:24:20;;;;;;;;;14.67;14.67;;;;;;;;5034831;28;51003;-52
2021/09/20 09:26:56;;;;;;;;;15.67;14.67;;;;;;;;5036707;28;51115;-54
2021/09/20 09:29:21;;;;;;;;;12.33;12.00;;;;;;;;5035820;28;51227;-54
2021/09/20 09:31:51;;;;;;;;;15.00;13.67;;;;;;;;5035590;28;50975;-53
2021/09/20 09:34:19;;;;;;;;;14.00;12.33;;;;;;;;5036265;28;51141;-53
2021/09/20 09:36:44;;;;;;;;;14.67;14.00;;;;;;;;5035947;28;50967;-53
2021/09/20 09:39:10;;;;;;;;;15.00;14.00;;;;;;;;5035644;28;51247;-54
2021/09/20 09:41:36;;;;;;;;;10.00;9.67;;;;;;;;5033881;28;51857;-53
2021/09/20 09:44:06;;;;;;;;;10.00;9.00;;;;;;;;5036421;28;50896;-52
2021/09/20 09:46:36;;;;;;;;;11.33;11.00;;;;;;;;5016024;28;51402;-55
2021/09/20 09:49:09;;;;;;;;;11.33;11.33;;;;;;;;5037809;28;51040;-54
2021/09/20 09:51:57;;;;;;;;;12.33;12.00;;;;;;;;5036989;28;51892;-54
2021/09/20 09:54:31;;;;;;;;;16.33;13.00;;;;;;;;5025401;28;51106;-52
2021/09/20 09:57:15;;;;;;;;;13.00;13.00;;;;;;;;5037658;28;51147;-53
2021/09/20 09:59:41;;;;;;;;;14.00;14.00;;;;;;;;5035531;28;52184;-54
2021/09/20 10:02:24;;;;;;;;;14.00;14.00;;;;;;;;5035304;28;51072;-54
2021/09/20 10:04:59;;;;;;;;;15.33;14.67;;;;;;;;5034305;28;51055;-54
2021/09/20 10:07:26;;;;;;;;;13.00;13.00;;;;;;;;5035491;28;50927;-53
2021/09/20 10:09:52;;;;;;;;;16.00;16.00;;;;;;;;5036887;28;51256;-51
2021/09/20 10:12:17;;;;;;;;;16.33;14.00;;;;;;;;5037098;28;51798;-50
2021/09/20 10:14:43;;;;;;;;;13.00;12.67;;;;;;;;5036426;28;51276;-51
2021/09/20 10:17:15;;;;;;;;;15.67;14.67;;;;;;;;5035641;28;50965;-54
2021/09/20 10:19:41;;;;;;;;;13.33;13.00;;;;;;;;5036167;28;51202;-53
2021/09/20 10:22:07;;;;;;;;;12.33;12.00;;;;;;;;5032761;28;52926;-54
2021/09/20 10:24:32;;;;;;;;;12.67;11.33;;;;;;;;5032859;28;51219;-52
2021/09/20 10:26:57;;;;;;;;;16.00;14.00;;;;;;;;5015295;28;51070;-55
2021/09/20 10:29:23;;;;;;;;;15.00;14.00;;;;;;;;5015744;28;51399;-55
2021/09/20 10:31:49;;;;;;;;;14.67;13.67;;;;;;;;5034158;28;52651;-54
2021/09/20 10:34:18;;;;;;;;;15.67;14.33;;;;;;;;5029402;28;51282;-56
2021/09/20 10:36:49;;;;;;;;;18.00;17.00;;;;;;;;5033701;28;51129;-53
2021/09/20 10:39:15;;;;;;;;;19.00;16.67;;;;;;;;5030279;28;51143;-54
2021/09/20 10:41:40;;;;;;;;;20.00;19.67;;;;;;;;5033593;28;51911;-53
2021/09/20 10:44:05;;;;;;;;;20.33;19.33;;;;;;;;5032523;28;50918;-54
2021/09/20 10:46:33;;;;;;;;;16.00;16.00;;;;;;;;5014915;28;51356;-54
2021/09/20 10:49:02;;;;;;;;;13.33;12.00;;;;;;;;5033262;28;51165;-55
2021/09/20 10:51:35;;;;;;;;;19.75;17.00;;;;;;;;5033185;28;51895;-54
2021/09/20 10:54:13;;;;;;;;;18.50;17.25;;;;;;;;5029684;28;51196;-52
2021/09/20 10:56:38;;;;;;;;;14.00;14.00;;;;;;;;5032322;28;51002;-54
2021/09/20 10:59:10;;;;;;;;;14.00;14.00;;;;;;;;5034384;28;51439;-53
2021/09/20 11:01:37;;;;;;;;;19.00;18.00;;;;;;;;5032905;28;51686;-52
2021/09/20 11:04:04;;;;;;;;;20.67;19.33;;;;;;;;5026645;28;51137;-54
2021/09/20 11:06:31;;;;;;;;;21.00;20.00;;;;;;;;5029845;28;51243;-54
2021/09/20 11:09:02;;;;;;;;;16.33;15.67;;;;;;;;5032891;28;51257;-53
2021/09/20 11:11:36;;;;;;;;;19.00;17.00;;;;;;;;5030295;28;51925;-52
2021/09/20 11:14:03;;;;;;;;;16.33;16.00;;;;;;;;5032514;28;51112;-53
2021/09/20 11:16:45;;;;;;;;;16.00;15.67;;;;;;;;5032713;28;51118;-53
2021/09/20 11:19:22;;;;;;;;;20.67;19.67;;;;;;;;5030861;28;52591;-55
2021/09/20 11:22:03;;;;;;;;;18.00;17.67;;;;;;;;5030821;28;51711;-54
2021/09/20 11:24:32;;;;;;;;;17.00;16.33;;;;;;;;5031453;28;51079;-53
2021/09/20 11:26:57;;;;;;;;;22.00;21.00;;;;;;;;5031518;28;51293;-53
2021/09/20 11:29:23;;;;;;;;;18.25;17.25;;;;;;;;5030943;28;51035;-54
2021/09/20 11:31:48;;;;;;;;;17.33;16.33;;;;;;;;5030110;28;51632;-54
2021/09/20 11:34:25;;;;;;;;;15.33;15.00;;;;;;;;5033163;28;50987;-54
2021/09/20 11:36:50;;;;;;;;;14.67;14.00;;;;;;;;5031870;28;51427;-53
2021/09/20 11:39:19;;;;;;;;;14.67;13.33;;;;;;;;5032804;28;51060;-55
2021/09/20 11:41:47;;;;;;;;;13.00;11.67;;;;;;;;5032676;28;50983;-54
2021/09/20 11:44:15;;;;;;;;;15.67;15.33;;;;;;;;5032743;28;50973;-55
2021/09/20 11:46:41;;;;;;;;;13.00;12.33;;;;;;;;5032105;28;51224;-55
2021/09/20 11:49:08;;;;;;;;;18.67;14.67;;;;;;;;5033431;28;51392;-57
2021/09/20 11:51:33;;;;;;;;;20.00;18.00;;;;;;;;5033244;28;51101;-54
2021/09/20 11:53:59;;;;;;;;;14.67;14.00;;;;;;;;5031937;28;51046;-55
2021/09/20 11:56:25;;;;;;;;;15.00;15.00;;;;;;;;5032638;28;50936;-54
2021/09/20 11:58:52;;;;;;;;;13.33;12.67;;;;;;;;5033136;28;51385;-53
2021/09/20 12:01:22;;;;;;;;;16.00;16.00;;;;;;;;5032453;28;53653;-53
2021/09/20 12:03:51;;;;;;;;;16.00;16.00;;;;;;;;5031652;28;51177;-54
2021/09/20 12:06:17;;;;;;;;;18.75;16.25;;;;;;;;5032310;28;51033;-53
2021/09/20 12:08:42;;;;;;;;;13.33;13.33;;;;;;;;5033269;28;51087;-53
2021/09/20 12:11:07;;;;;;;;;15.67;15.00;;;;;;;;5032530;28;50923;-56
2021/09/20 12:13:36;;;;;;;;;16.00;15.67;;;;;;;;5032783;28;50895;-54
2021/09/20 12:16:07;;;;;;;;;14.33;14.00;;;;;;;;5031752;28;50907;-52
2021/09/20 12:18:32;;;;;;;;;14.00;14.00;;;;;;;;5032866;28;51221;-53
2021/09/20 12:21:05;;;;;;;;;16.00;16.00;;;;;;;;5032495;28;51809;-54
2021/09/20 12:23:32;;;;;;;;;16.33;14.67;;;;;;;;5032829;28;51012;-54
2021/09/20 12:26:00;;;;;;;;;20.00;19.67;;;;;;;;5032088;28;51165;-53
2021/09/20 12:28:31;;;;;;;;;17.00;16.00;;;;;;;;5032765;28;51105;-53
2021/09/20 12:30:58;;;;;;;;;19.33;18.67;;;;;;;;5032211;28;50951;-53
2021/09/20 12:33:23;;;;;;;;;14.00;14.00;;;;;;;;5032509;28;51053;-54
2021/09/20 12:35:49;;;;;;;;;14.67;14.00;;;;;;;;5031406;28;51323;-53
2021/09/20 12:38:20;;;;;;;;;16.00;15.00;;;;;;;;5032771;28;51004;-55
2021/09/20 12:40:46;;;;;;;;;15.33;15.00;;;;;;;;5031635;28;51097;-54
2021/09/20 12:43:14;;;;;;;;;14.33;14.33;;;;;;;;5032374;28;50889;-55
2021/09/20 12:45:41;;;;;;;;;18.67;16.67;;;;;;;;5030652;28;51059;-54
2021/09/20 12:48:07;;;;;;;;;18.67;18.67;;;;;;;;5032551;28;50986;-57
2021/09/20 12:50:42;;;;;;;;;20.33;17.00;;;;;;;;5032057;28;51204;-52
2021/09/20 12:53:08;;;;;;;;;16.00;15.67;;;;;;;;5032674;28;50863;-52
2021/09/20 12:55:38;;;;;;;;;15.33;15.00;;;;;;;;5031255;28;50870;-53
2021/09/20 12:58:04;;;;;;;;;16.00;13.67;;;;;;;;5014740;28;51352;-54
2021/09/20 13:00:33;;;;;;;;;28.75;28.25;;;;;;;;5032038;28;52141;-54
2021/09/20 13:03:06;;;;;;;;;14.67;14.00;;;;;;;;5032226;28;50997;-53
2021/09/20 13:05:31;;;;;;;;;12.33;12.33;;;;;;;;5030687;28;51126;-52
2021/09/20 13:08:03;;;;;;;;;12.00;11.00;;;;;;;;5031947;28;50954;-53
2021/09/20 13:10:31;;;;;;;;;12.67;12.67;;;;;;;;5031707;28;52621;-52
2021/09/20 13:12:57;;;;;;;;;10.67;10.67;;;;;;;;5031737;28;50979;-53
2021/09/20 13:15:23;;;;;;;;;12.67;12.00;;;;;;;;5031147;28;51142;-54
2021/09/20 13:17:50;;;;;;;;;11.33;11.33;;;;;;;;5032199;28;50855;-53
2021/09/20 13:20:15;;;;;;;;;7.67;7.00;;;;;;;;5031755;28;52082;-55
2021/09/20 13:22:46;;;;;;;;;8.67;8.67;;;;;;;;5031948;28;50935;-53
2021/09/20 13:25:18;;;;;;;;;7.33;7.00;;;;;;;;5031109;28;51071;-53
2021/09/20 13:27:43;;;;;;;;;11.00;10.67;;;;;;;;5031763;28;51090;-53
2021/09/20 13:30:16;;;;;;;;;9.67;9.00;;;;;;;;5031549;28;51828;-54
2021/09/20 13:32:41;;;;;;;;;8.00;8.00;;;;;;;;5014795;28;51083;-54
2021/09/20 13:35:17;;;;;;;;;9.00;8.00;;;;;;;;5031201;28;51035;-53
2021/09/20 13:37:42;;;;;;;;;11.33;10.00;;;;;;;;5031683;28;51089;-53
2021/09/20 13:40:09;;;;;;;;;9.00;9.00;;;;;;;;5031093;28;52829;-54
2021/09/20 13:42:34;;;;;;;;;10.00;10.00;;;;;;;;5030842;28;51172;-53
2021/09/20 13:44:59;;;;;;;;;9.00;8.00;;;;;;;;5029880;28;51252;-54
2021/09/20 13:47:26;;;;;;;;;7.00;7.00;;;;;;;;5013732;28;50987;-54
2021/09/20 13:49:51;;;;;;;;;9.00;8.00;;;;;;;;5031479;28;52845;-53
2021/09/20 13:54:51;;;;;;;;;10.00;10.00;;;;;;;;5458576;22;52341;-61
2021/09/20 13:57:17;;;;;;;;;10.67;10.00;;;;;;;;5030593;28;51099;-61
2021/09/20 13:59:42;;;;;;;;;7.67;7.67;;;;;;;;5034461;28;51888;-60
2021/09/20 14:02:07;;;;;;;;;8.00;8.00;;;;;;;;5034972;28;51092;-60
2021/09/20 14:04:32;;;;;;;;;15.67;15.33;;;;;;;;5033132;28;51137;-60
2021/09/20 14:06:58;;;;;;;;;11.33;10.33;;;;;;;;5034967;28;51056;-60
2021/09/20 14:09:23;;;;;;;;;8.33;7.00;;;;;;;;5034405;28;51732;-60
2021/09/20 14:11:48;;;;;;;;;8.00;8.00;;;;;;;;5034332;28;51011;-60
2021/09/20 14:14:14;;;;;;;;;10.00;10.00;;;;;;;;5034011;28;51161;-60
2021/09/20 14:16:39;;;;;;;;;11.00;8.33;;;;;;;;5034279;28;51203;-60
2021/09/20 14:19:04;;;;;;;;;9.33;8.33;;;;;;;;5031119;28;51923;-61
2021/09/20 14:21:30;;;;;;;;;10.00;10.00;;;;;;;;5031260;28;51068;-60
2021/09/20 14:23:55;;;;;;;;;9.00;9.00;;;;;;;;5031561;28;51057;-60
2021/09/20 14:26:20;;;;;;;;;8.67;8.67;;;;;;;;5032864;28;51208;-60
2021/09/20 14:28:46;;;;;;;;;10.33;10.00;;;;;;;;5027873;28;52084;-60